Kezdőlap
METAR-TAF:

METAR-TAF

Repülőterek :

Marshfield Municipal Airport

Marshfield, Wisconsin, Amerikai Egyesült Államok

földrajzi szélesség: 44-38-17N, földrajzi hosszúság: 090-11-15W, magasság: 389 m

Jelenlegi meteorológiai megfigyelések

A jelentés 57 perccel ezelõtt készült, 14:54 UTC
Északnyugati szél 13 kt
Hőmérséklet -6°C
Páratartalom 79%
Légköri nyomás 1024 hPa
Látótávolság: 16.1 km
Derült ég

METAR: KMFI 061454Z AUTO 32013KT 10SM CLR M06/M09 A3024 RMK AO2 SLP259 T10561094 53024

Idő: 09:51 (15:51 UTC)


TAF: hiányzik

Meteorológiai megfigyelések és előrejelzések több, mint 4000 repülőtéren (METAR és TAF jelentéseket).

A térképen piros és sárga pontok jelzik az elérhető meteorológiai állomásokat.

Mozgassa az egeret a pont fölött, hogy megjelenjen az állomás neve.

Azután kattintson az időjárási megfigyelések és előrejelzések megtekintéséhez.

A térkép megváltoztatása: kattintson a fekete keresztel jelölt zöld gombra ráközelítéshez, a vonallal jelölt zöld gombra távolításhoz, vagy a zöld nyilakra a szomszédos térképek eléréséhez.


METAR-TAF: